createdAt,value
2018-11-07T00:01:47.462Z,21.83
2018-11-07T00:04:15.838Z,25.50
2018-11-07T00:06:44.251Z,21.27
2018-11-07T00:09:12.640Z,23.47
2018-11-07T00:11:41.031Z,22.17
2018-11-07T00:14:09.467Z,26.47
2018-11-07T00:16:37.871Z,29.03
2018-11-07T00:19:06.314Z,25.57
2018-11-07T00:21:34.724Z,30.00
2018-11-07T00:24:03.111Z,30.90
2018-11-07T00:26:31.571Z,27.03
2018-11-07T00:28:59.928Z,33.43
2018-11-07T00:31:28.312Z,43.10
2018-11-07T00:33:56.703Z,32.13
2018-11-07T00:36:25.332Z,40.97
2018-11-07T00:38:53.732Z,61.33
2018-11-07T00:41:22.171Z,81.13
2018-11-07T00:43:50.595Z,75.83
2018-11-07T00:46:18.980Z,64.03
2018-11-07T00:48:47.378Z,59.67
2018-11-07T00:51:15.784Z,55.00
2018-11-07T00:53:44.171Z,51.00
2018-11-07T00:56:12.563Z,61.47
2018-11-07T00:58:40.975Z,43.03
2018-11-07T01:01:09.368Z,41.73
2018-11-07T01:03:37.752Z,45.53
2018-11-07T01:06:06.148Z,36.83
2018-11-07T01:08:34.534Z,33.07
2018-11-07T01:11:02.933Z,41.87
2018-11-07T01:13:31.341Z,33.53
2018-11-07T01:15:59.726Z,45.20
2018-11-07T01:18:28.124Z,36.03
2018-11-07T01:20:56.532Z,33.63
2018-11-07T01:23:24.928Z,35.37
2018-11-07T01:25:53.317Z,26.10
2018-11-07T01:28:21.848Z,35.47
2018-11-07T01:30:50.123Z,25.27
2018-11-07T01:33:18.533Z,26.17
2018-11-07T01:35:46.940Z,26.57
2018-11-07T01:38:15.328Z,23.37
2018-11-07T01:40:48.750Z,25.50
2018-11-07T01:43:17.159Z,31.47
2018-11-07T01:45:45.563Z,24.97
2018-11-07T01:48:13.962Z,29.23
2018-11-07T01:50:42.372Z,25.17
2018-11-07T01:53:10.754Z,31.83
2018-11-07T01:55:39.160Z,29.97
2018-11-07T01:58:07.556Z,27.30
2018-11-07T02:00:35.966Z,31.17
2018-11-07T02:03:04.458Z,46.70
2018-11-07T02:05:32.847Z,50.73
2018-11-07T02:08:01.235Z,56.40
2018-11-07T02:10:29.650Z,70.07
2018-11-07T02:12:58.031Z,84.20
2018-11-07T02:15:26.444Z,114.20
2018-11-07T02:17:54.852Z,100.50
2018-11-07T02:20:23.239Z,93.07
2018-11-07T02:22:51.623Z,90.80
2018-11-07T02:25:20.031Z,83.13
2018-11-07T02:27:48.647Z,94.63
2018-11-07T02:30:17.348Z,83.00
2018-11-07T02:32:45.834Z,74.03
2018-11-07T02:35:14.219Z,68.70
2018-11-07T02:37:42.603Z,81.90
2018-11-07T02:40:11.263Z,77.00
2018-11-07T02:42:39.656Z,67.40
2018-11-07T02:45:08.089Z,66.80
2018-11-07T02:47:36.463Z,66.50
2018-11-07T02:50:05.324Z,86.60
2018-11-07T02:52:33.707Z,86.23
2018-11-07T02:55:02.208Z,75.60
2018-11-07T02:57:30.596Z,59.40
2018-11-07T02:59:58.982Z,58.77
2018-11-07T03:02:27.391Z,51.33
2018-11-07T03:04:55.792Z,50.53
2018-11-07T03:07:24.187Z,45.20
2018-11-07T03:09:52.616Z,67.53
2018-11-07T03:12:20.983Z,87.37
2018-11-07T03:14:49.380Z,42.90
2018-11-07T03:17:17.807Z,41.40
2018-11-07T03:19:46.210Z,44.83
2018-11-07T03:22:14.605Z,48.37
2018-11-07T03:24:43.039Z,52.70
2018-11-07T03:27:11.422Z,58.40
2018-11-07T03:29:39.807Z,55.40
2018-11-07T03:32:08.223Z,72.90
2018-11-07T03:34:36.602Z,78.07
2018-11-07T03:37:04.994Z,62.40
2018-11-07T03:39:33.402Z,66.97
2018-11-07T03:42:01.791Z,65.20
2018-11-07T03:44:30.174Z,75.53
2018-11-07T03:46:58.607Z,62.07
2018-11-07T03:49:26.993Z,73.90
2018-11-07T03:51:55.394Z,53.63
2018-11-07T03:54:23.794Z,62.63
2018-11-07T03:56:52.189Z,62.67
2018-11-07T03:59:20.572Z,50.93
2018-11-07T04:01:48.972Z,46.53
2018-11-07T04:04:17.570Z,49.63
2018-11-07T04:06:46.060Z,53.27
2018-11-07T04:09:14.479Z,81.53
2018-11-07T04:11:43.612Z,53.33
2018-11-07T04:14:12.028Z,58.73
2018-11-07T04:16:40.438Z,56.63
2018-11-07T04:19:09.030Z,53.80
2018-11-07T04:21:37.832Z,53.30
2018-11-07T04:24:06.272Z,52.07
2018-11-07T04:26:35.880Z,64.00
2018-11-07T04:29:04.371Z,45.77
2018-11-07T04:31:32.776Z,47.07
2018-11-07T04:34:01.172Z,42.93
2018-11-07T04:36:29.551Z,42.57
2018-11-07T04:38:58.001Z,47.47
2018-11-07T04:41:26.362Z,55.43
2018-11-07T04:43:54.754Z,50.47
2018-11-07T04:46:23.163Z,55.80
2018-11-07T04:48:51.568Z,57.90
2018-11-07T04:51:19.962Z,50.77
2018-11-07T04:53:48.371Z,51.43
2018-11-07T04:56:16.757Z,61.37
2018-11-07T04:58:45.149Z,61.40
2018-11-07T05:01:13.556Z,59.33
2018-11-07T05:03:41.943Z,65.27
2018-11-07T05:06:10.368Z,66.67
2018-11-07T05:08:39.045Z,82.70
2018-11-07T05:11:07.399Z,97.47
2018-11-07T05:13:35.907Z,73.07
2018-11-07T05:16:04.401Z,83.40
2018-11-07T05:18:32.791Z,74.47
2018-11-07T05:21:01.174Z,73.17
2018-11-07T05:23:29.575Z,95.50
2018-11-07T05:25:57.984Z,119.70
2018-11-07T05:28:26.359Z,124.47
2018-11-07T05:30:54.775Z,145.93
2018-11-07T05:33:23.169Z,169.23
2018-11-07T05:35:51.789Z,113.77
2018-11-07T05:38:20.286Z,138.77
2018-11-07T05:40:48.679Z,162.30
2018-11-07T05:43:17.075Z,222.60
2018-11-07T05:45:45.487Z,260.57
2018-11-07T05:48:13.884Z,249.47
2018-11-07T05:50:42.295Z,224.47
2018-11-07T05:53:10.914Z,317.60
2018-11-07T05:55:39.386Z,245.37
2018-11-07T05:58:07.783Z,309.47
2018-11-07T06:00:36.179Z,188.47
2018-11-07T06:03:04.563Z,390.20
2018-11-07T06:05:32.951Z,202.67
2018-11-07T06:08:01.352Z,224.63
2018-11-07T06:10:29.748Z,302.53
2018-11-07T06:12:58.137Z,241.37
2018-11-07T06:15:26.544Z,260.50
2018-11-07T06:17:54.934Z,170.60
2018-11-07T06:20:23.323Z,299.60
2018-11-07T06:22:51.726Z,161.60
2018-11-07T06:25:20.124Z,140.47
2018-11-07T06:27:48.506Z,187.27
2018-11-07T06:30:16.915Z,197.30
2018-11-07T06:32:45.325Z,158.03
2018-11-07T06:35:13.716Z,99.80
2018-11-07T06:37:42.119Z,165.97
2018-11-07T06:40:11.450Z,140.77
2018-11-07T06:42:40.196Z,214.00
2018-11-07T06:45:09.546Z,221.33
2018-11-07T06:47:37.969Z,131.20
2018-11-07T06:50:07.579Z,179.30
2018-11-07T06:52:36.003Z,130.07
2018-11-07T06:55:04.808Z,245.10
2018-11-07T06:57:33.183Z,184.90
2018-11-07T07:00:01.799Z,127.83
2018-11-07T07:02:30.289Z,161.13
2018-11-07T07:04:58.688Z,283.17
2018-11-07T07:07:27.111Z,202.97
2018-11-07T07:09:55.502Z,132.63
2018-11-07T07:12:24.317Z,127.37
2018-11-07T07:14:52.759Z,134.60
2018-11-07T07:17:21.365Z,257.77
2018-11-07T07:19:49.799Z,162.93
2018-11-07T07:22:18.298Z,166.90
2018-11-07T07:24:46.686Z,263.57
2018-11-07T07:27:15.068Z,196.47
2018-11-07T07:29:43.482Z,128.83
2018-11-07T07:32:11.922Z,111.43
2018-11-07T07:34:40.299Z,119.80
2018-11-07T07:37:08.695Z,93.63
2018-11-07T07:39:37.079Z,113.97
2018-11-07T07:42:05.479Z,106.50
2018-11-07T07:44:33.880Z,127.47
2018-11-07T07:47:02.261Z,89.07
2018-11-07T07:49:30.729Z,129.67
2018-11-07T07:51:59.340Z,143.10
2018-11-07T07:54:27.842Z,129.37
2018-11-07T07:56:56.252Z,90.70
2018-11-07T07:59:24.650Z,130.37
2018-11-07T08:01:53.037Z,94.47
2018-11-07T08:04:21.422Z,89.33
2018-11-07T08:06:49.863Z,77.10
2018-11-07T08:09:18.202Z,78.77
2018-11-07T08:11:46.600Z,99.83
2018-11-07T08:14:15.208Z,75.87
2018-11-07T08:16:43.684Z,79.23
2018-11-07T08:19:12.067Z,77.07
2018-11-07T08:21:40.526Z,63.67
2018-11-07T08:24:08.907Z,63.93
2018-11-07T08:26:37.515Z,58.53
2018-11-07T08:29:06.035Z,52.77
2018-11-07T08:31:34.391Z,53.17
2018-11-07T08:34:02.779Z,52.17
2018-11-07T08:36:31.180Z,56.17
2018-11-07T08:38:59.563Z,53.33
2018-11-07T08:41:27.956Z,58.47
2018-11-07T08:43:56.359Z,54.73
2018-11-07T08:46:24.963Z,53.07
2018-11-07T08:48:53.436Z,52.30
2018-11-07T08:51:21.826Z,56.47
2018-11-07T08:53:50.210Z,57.00
2018-11-07T08:56:18.611Z,56.73
2018-11-07T08:58:47.010Z,52.47
2018-11-07T09:01:15.478Z,57.60
2018-11-07T09:03:43.791Z,49.93
2018-11-07T09:06:12.195Z,48.87
2018-11-07T09:08:40.573Z,44.77
2018-11-07T09:11:09.042Z,41.50
2018-11-07T09:13:37.431Z,40.23
2018-11-07T09:16:05.815Z,40.43
2018-11-07T09:18:34.208Z,42.87
2018-11-07T09:21:02.624Z,40.30
2018-11-07T09:23:31.028Z,43.87
2018-11-07T09:25:59.406Z,40.50
2018-11-07T09:28:28.036Z,40.37
2018-11-07T09:30:56.513Z,37.13
2018-11-07T09:33:24.895Z,38.80
2018-11-07T09:35:53.338Z,38.57
2018-11-07T09:38:21.729Z,39.97
2018-11-07T09:40:50.107Z,42.63
2018-11-07T09:43:18.507Z,36.73
2018-11-07T09:45:47.126Z,36.00
2018-11-07T09:48:15.651Z,36.07
2018-11-07T09:50:44.015Z,32.23
2018-11-07T09:53:12.498Z,33.40
2018-11-07T09:55:41.580Z,34.33
2018-11-07T09:58:10.095Z,33.47
2018-11-07T10:00:38.475Z,29.60
2018-11-07T10:03:06.864Z,31.03
2018-11-07T10:05:35.552Z,29.20
2018-11-07T10:08:04.019Z,28.27
2018-11-07T10:10:32.483Z,28.87
2018-11-07T10:13:01.103Z,27.17
2018-11-07T10:15:29.571Z,27.20
2018-11-07T10:17:57.954Z,27.03
2018-11-07T10:20:26.420Z,26.40
2018-11-07T10:22:54.780Z,25.37
2018-11-07T10:25:23.176Z,24.67
2018-11-07T10:27:52.239Z,23.93
2018-11-07T10:30:21.130Z,23.57
2018-11-07T10:32:50.241Z,22.03
2018-11-07T10:35:18.744Z,22.97
2018-11-07T10:37:47.418Z,20.07
2018-11-07T10:40:17.430Z,19.17
2018-11-07T10:42:46.292Z,19.70
2018-11-07T10:45:14.896Z,19.63
2018-11-07T10:47:44.439Z,20.47
2018-11-07T10:50:13.775Z,22.43
2018-11-07T10:52:42.903Z,20.23
2018-11-07T10:55:12.139Z,23.70
2018-11-07T10:57:40.553Z,19.60
2018-11-07T11:00:13.855Z,18.40
2018-11-07T11:02:47.581Z,19.97
2018-11-07T11:05:17.571Z,20.37
2018-11-07T11:07:45.958Z,19.70
2018-11-07T11:10:14.371Z,21.73
2018-11-07T11:12:43.799Z,22.70
2018-11-07T11:15:12.199Z,20.90
2018-11-07T11:17:40.746Z,21.87
2018-11-07T11:20:11.142Z,21.83
2018-11-07T11:22:39.631Z,23.83
2018-11-07T11:25:08.045Z,21.57
2018-11-07T11:27:36.592Z,20.00
2018-11-07T11:30:04.887Z,21.97
2018-11-07T11:32:33.321Z,21.77
2018-11-07T11:35:01.877Z,23.43
2018-11-07T11:37:30.116Z,22.67
2018-11-07T11:39:58.534Z,22.37
2018-11-07T11:42:26.964Z,24.63
2018-11-07T11:44:55.352Z,22.83
2018-11-07T11:47:23.756Z,23.73
2018-11-07T11:49:52.143Z,28.33
2018-11-07T11:52:20.540Z,27.17
2018-11-07T11:54:49.169Z,24.53
2018-11-07T11:57:17.653Z,25.40
2018-11-07T11:59:46.289Z,27.77
2018-11-07T12:02:14.473Z,24.07
2018-11-07T12:04:42.860Z,26.27
2018-11-07T12:07:11.234Z,27.37
2018-11-07T12:09:39.630Z,29.40
2018-11-07T12:12:08.052Z,27.47
2018-11-07T12:14:36.428Z,26.07
2018-11-07T12:17:05.068Z,24.97
2018-11-07T12:19:33.543Z,30.43
2018-11-07T12:22:01.993Z,29.30
2018-11-07T12:24:30.335Z,29.53
2018-11-07T12:26:59.240Z,28.03
2018-11-07T12:29:27.624Z,28.00
2018-11-07T12:31:56.023Z,28.73
2018-11-07T12:34:24.407Z,26.90
2018-11-07T12:36:52.790Z,28.20
2018-11-07T12:39:21.432Z,27.97
2018-11-07T12:41:49.936Z,31.67
2018-11-07T12:44:18.332Z,28.13
2018-11-07T12:46:46.727Z,28.53
2018-11-07T12:49:15.119Z,29.30
2018-11-07T12:51:43.508Z,26.90
2018-11-07T12:54:12.143Z,29.20
2018-11-07T12:56:40.622Z,28.33
2018-11-07T12:59:09.020Z,26.93
2018-11-07T13:01:37.456Z,27.00
2018-11-07T13:04:05.859Z,28.87
2018-11-07T13:06:34.242Z,27.50
2018-11-07T13:09:02.670Z,27.20
2018-11-07T13:11:31.131Z,27.40
2018-11-07T13:13:59.452Z,24.10
2018-11-07T13:16:27.918Z,24.70
2018-11-07T13:18:56.255Z,26.33
2018-11-07T13:21:24.648Z,28.47
2018-11-07T13:23:53.031Z,25.47
2018-11-07T13:26:21.420Z,24.83
2018-11-07T13:28:50.002Z,24.13
2018-11-07T13:31:18.354Z,25.13
2018-11-07T13:33:47.076Z,23.90
2018-11-07T13:36:15.635Z,25.00
2018-11-07T13:38:44.480Z,25.40
2018-11-07T13:41:12.567Z,24.03
2018-11-07T13:43:41.283Z,24.00
2018-11-07T13:46:09.924Z,24.13
2018-11-07T13:48:38.327Z,23.37
2018-11-07T13:51:06.885Z,18.20
2018-11-07T13:53:35.395Z,24.43
2018-11-07T13:56:03.875Z,24.23
2018-11-07T13:58:32.346Z,22.27
2018-11-07T14:01:00.923Z,23.20
2018-11-07T14:03:29.427Z,19.23
2018-11-07T14:05:57.933Z,24.37
2018-11-07T14:08:26.552Z,24.10
2018-11-07T14:10:55.159Z,24.10
2018-11-07T14:13:23.626Z,22.33
2018-11-07T14:15:52.071Z,23.77
2018-11-07T14:18:20.420Z,22.53
2018-11-07T14:20:48.792Z,22.33
2018-11-07T14:23:17.406Z,20.60
2018-11-07T14:25:45.870Z,24.00
2018-11-07T14:28:14.500Z,21.50
2018-11-07T14:30:42.642Z,21.87
2018-11-07T14:33:11.036Z,23.33
2018-11-07T14:35:39.479Z,19.13
2018-11-07T14:38:07.879Z,21.63
2018-11-07T14:40:36.269Z,20.70
2018-11-07T14:43:04.668Z,20.53
2018-11-07T14:45:33.072Z,21.60
2018-11-07T14:48:01.678Z,21.33
2018-11-07T14:50:30.151Z,21.73
2018-11-07T14:52:58.546Z,19.23
2018-11-07T14:55:26.927Z,25.80
2018-11-07T14:57:55.528Z,24.93
2018-11-07T15:00:24.019Z,25.63
2018-11-07T15:02:52.392Z,21.37
2018-11-07T15:05:20.867Z,19.77
2018-11-07T15:07:49.235Z,19.50
2018-11-07T15:10:18.330Z,21.10
2018-11-07T15:12:47.019Z,21.50
2018-11-07T15:15:16.690Z,25.57
2018-11-07T15:17:45.084Z,21.77
2018-11-07T15:20:14.440Z,20.20
2018-11-07T15:22:43.110Z,22.30
2018-11-07T15:25:12.745Z,22.27
2018-11-07T15:27:42.552Z,21.97
2018-11-07T15:30:11.767Z,21.57
2018-11-07T15:32:40.746Z,24.67
2018-11-07T15:35:09.671Z,26.53
2018-11-07T15:37:38.488Z,35.60
2018-11-07T15:40:08.547Z,31.13
2018-11-07T15:42:37.036Z,37.77
2018-11-07T15:45:06.100Z,38.67
2018-11-07T15:47:34.511Z,39.77
2018-11-07T15:50:08.346Z,40.23
2018-11-07T15:52:36.832Z,40.77
2018-11-07T15:55:05.991Z,42.70
2018-11-07T15:57:34.479Z,41.60
2018-11-07T16:00:02.975Z,42.47
2018-11-07T16:02:31.400Z,40.40
2018-11-07T16:05:00.279Z,35.57
2018-11-07T16:07:28.765Z,34.07
2018-11-07T16:09:57.169Z,36.93
2018-11-07T16:12:35.936Z,37.10
2018-11-07T16:15:05.094Z,31.70
2018-11-07T16:17:33.475Z,27.70
2018-11-07T16:20:01.875Z,28.67
2018-11-07T16:22:41.028Z,26.70
2018-11-07T16:25:09.404Z,27.37
2018-11-07T16:27:38.099Z,25.10
2018-11-07T16:30:07.449Z,29.33
2018-11-07T16:32:35.839Z,23.70
2018-11-07T16:35:04.359Z,21.80
2018-11-07T16:37:32.747Z,21.20
2018-11-07T16:40:01.167Z,20.63
2018-11-07T16:42:29.592Z,21.07
2018-11-07T16:44:57.931Z,21.67
2018-11-07T16:47:26.330Z,19.83
2018-11-07T16:49:54.725Z,21.30
2018-11-07T16:52:23.184Z,21.10
2018-11-07T16:54:51.530Z,21.40
2018-11-07T16:57:22.606Z,21.43
2018-11-07T16:59:50.997Z,18.83
2018-11-07T17:02:19.466Z,21.93
2018-11-07T17:04:47.836Z,21.47
2018-11-07T17:07:16.273Z,21.33
2018-11-07T17:09:44.587Z,20.67
2018-11-07T17:12:13.050Z,19.90
2018-11-07T17:14:41.668Z,23.10
2018-11-07T17:17:10.150Z,24.80
2018-11-07T17:19:38.539Z,19.80
2018-11-07T17:22:12.007Z,19.30
2018-11-07T17:24:40.549Z,20.90
2018-11-07T17:27:08.867Z,21.10
2018-11-07T17:29:37.263Z,20.47
2018-11-07T17:32:05.715Z,20.77
2018-11-07T17:34:34.450Z,24.33
2018-11-07T17:37:02.879Z,24.60
2018-11-07T17:39:31.255Z,27.17
2018-11-07T17:41:59.652Z,29.13
2018-11-07T17:44:28.055Z,26.83
2018-11-07T17:46:56.456Z,31.00
2018-11-07T17:49:24.832Z,31.20
2018-11-07T17:51:53.238Z,29.83
2018-11-07T17:54:21.840Z,30.13
2018-11-07T17:56:50.313Z,28.73
2018-11-07T17:59:18.722Z,32.27
2018-11-07T18:01:47.141Z,26.47
2018-11-07T18:04:15.537Z,29.73
2018-11-07T18:06:43.952Z,28.00
2018-11-07T18:09:12.331Z,26.13
2018-11-07T18:11:40.720Z,29.27
2018-11-07T18:14:09.555Z,35.67
2018-11-07T18:16:38.180Z,28.90
2018-11-07T18:19:07.863Z,30.87
2018-11-07T18:21:36.266Z,32.27
2018-11-07T18:24:04.648Z,30.17
2018-11-07T18:26:33.044Z,31.83
2018-11-07T18:29:01.663Z,33.20
2018-11-07T18:31:30.149Z,30.63
2018-11-07T18:33:58.691Z,28.97
2018-11-07T18:36:27.088Z,26.47
2018-11-07T18:38:55.470Z,31.20
2018-11-07T18:41:23.877Z,32.20
2018-11-07T18:43:52.296Z,28.83
2018-11-07T18:46:20.674Z,28.83
2018-11-07T18:48:49.060Z,29.20
2018-11-07T18:51:17.547Z,28.07
2018-11-07T18:53:45.923Z,28.73
2018-11-07T18:56:14.531Z,27.67
2018-11-07T18:58:43.157Z,28.57
2018-11-07T19:01:11.408Z,29.47
2018-11-07T19:03:39.798Z,31.37
2018-11-07T19:06:08.195Z,28.03
2018-11-07T19:08:36.588Z,31.47
2018-11-07T19:11:04.990Z,29.57
2018-11-07T19:13:33.610Z,30.30
2018-11-07T19:16:02.114Z,29.93
2018-11-07T19:18:30.503Z,31.87
2018-11-07T19:20:58.903Z,30.63
2018-11-07T19:23:27.291Z,31.63
2018-11-07T19:25:55.896Z,31.03
2018-11-07T19:28:24.392Z,30.43
2018-11-07T19:30:52.781Z,34.13
2018-11-07T19:33:21.165Z,30.83
2018-11-07T19:35:49.574Z,31.63
2018-11-07T19:38:17.960Z,36.13
2018-11-07T19:40:46.347Z,31.90
2018-11-07T19:43:14.731Z,37.67
2018-11-07T19:45:43.106Z,36.47
2018-11-07T19:48:11.496Z,38.67
2018-11-07T19:50:39.887Z,37.50
2018-11-07T19:53:08.271Z,35.00
2018-11-07T19:55:36.662Z,31.93
2018-11-07T19:58:05.211Z,28.63
2018-11-07T20:00:33.593Z,38.63
2018-11-07T20:03:01.972Z,36.77
2018-11-07T20:05:30.372Z,33.83
2018-11-07T20:07:58.773Z,34.90
2018-11-07T20:10:27.246Z,36.53
2018-11-07T20:12:55.566Z,34.03
2018-11-07T20:15:23.959Z,34.03
2018-11-07T20:17:52.410Z,36.43
2018-11-07T20:20:20.756Z,33.63
2018-11-07T20:22:49.211Z,41.17
2018-11-07T20:25:17.548Z,36.37
2018-11-07T20:27:45.979Z,39.33
2018-11-07T20:30:15.876Z,37.50
2018-11-07T20:32:44.429Z,39.77
2018-11-07T20:35:16.156Z,34.27
2018-11-07T20:37:44.523Z,41.37
2018-11-07T20:40:15.139Z,41.67
2018-11-07T20:42:43.568Z,40.13
2018-11-07T20:45:12.674Z,49.10
2018-11-07T20:47:41.514Z,41.80
2018-11-07T20:50:11.411Z,40.73
2018-11-07T20:52:40.318Z,41.07
2018-11-07T20:55:09.583Z,39.87
2018-11-07T20:57:38.003Z,41.53
2018-11-07T21:00:08.382Z,39.93
2018-11-07T21:02:36.780Z,38.53
2018-11-07T21:05:05.552Z,44.73
2018-11-07T21:07:33.938Z,39.33
2018-11-07T21:10:02.325Z,42.83
2018-11-07T21:12:30.951Z,39.80
2018-11-07T21:14:59.331Z,41.73
2018-11-07T21:17:27.706Z,38.00
2018-11-07T21:19:56.211Z,39.93
2018-11-07T21:22:24.603Z,40.73
2018-11-07T21:24:52.987Z,46.10
2018-11-07T21:27:21.383Z,39.03
2018-11-07T21:29:49.775Z,44.93
2018-11-07T21:32:18.187Z,41.60
2018-11-07T21:34:46.863Z,41.57
2018-11-07T21:37:15.203Z,41.00
2018-11-07T21:39:45.914Z,40.77
2018-11-07T21:42:14.412Z,41.13
2018-11-07T21:44:42.809Z,40.67
2018-11-07T21:47:11.229Z,36.63
2018-11-07T21:49:39.820Z,37.80
2018-11-07T21:52:08.330Z,37.77
2018-11-07T21:54:36.722Z,41.07
2018-11-07T21:57:05.115Z,44.73
2018-11-07T21:59:33.503Z,36.90
2018-11-07T22:02:01.895Z,42.17
2018-11-07T22:04:30.855Z,37.43
2018-11-07T22:06:59.242Z,38.17
2018-11-07T22:09:27.627Z,38.17
2018-11-07T22:11:56.267Z,39.17
2018-11-07T22:14:24.752Z,39.93
2018-11-07T22:16:53.135Z,36.87
2018-11-07T22:19:21.534Z,42.43
2018-11-07T22:21:49.943Z,38.00
2018-11-07T22:24:18.384Z,39.00
2018-11-07T22:26:46.715Z,41.30
2018-11-07T22:29:15.090Z,37.00
2018-11-07T22:31:43.506Z,35.57
2018-11-07T22:34:11.862Z,35.23
2018-11-07T22:36:40.294Z,42.73
2018-11-07T22:39:09.281Z,34.47
2018-11-07T22:41:37.675Z,33.40
2018-11-07T22:44:06.087Z,35.77
2018-11-07T22:46:34.462Z,33.27
2018-11-07T22:49:02.859Z,34.03
2018-11-07T22:51:31.250Z,32.00
2018-11-07T22:53:59.748Z,34.83
2018-11-07T22:56:28.165Z,36.03
2018-11-07T22:58:56.551Z,30.43
2018-11-07T23:01:29.349Z,34.37
2018-11-07T23:03:57.713Z,37.93
2018-11-07T23:06:26.106Z,40.67
2018-11-07T23:08:54.496Z,34.27
2018-11-07T23:11:22.876Z,35.37
2018-11-07T23:13:51.264Z,39.97
2018-11-07T23:16:19.880Z,37.20
2018-11-07T23:18:48.484Z,36.27
2018-11-07T23:21:16.967Z,36.17
2018-11-07T23:23:45.388Z,39.03
2018-11-07T23:26:13.771Z,40.47
2018-11-07T23:28:42.158Z,42.17
2018-11-07T23:31:10.603Z,43.53
2018-11-07T23:33:38.983Z,41.17
2018-11-07T23:36:07.367Z,40.57
2018-11-07T23:38:35.759Z,42.20
2018-11-07T23:41:04.143Z,36.10
2018-11-07T23:43:32.527Z,36.10
2018-11-07T23:46:00.914Z,33.03
2018-11-07T23:48:29.322Z,34.37
2018-11-07T23:50:57.707Z,34.50
2018-11-07T23:53:26.110Z,30.77
2018-11-07T23:55:54.487Z,29.53
2018-11-07T23:58:22.878Z,29.17
